This is the latest recevied weather packets stored in our database for station/object E24QND-2. If no packets are shown the sender has not sent any weather packets the latest 10 day(s).
| Time | Temp. | Humidity | Pressure | Rain* | Wind** | Luminosity | Snow |
|---|---|---|---|---|---|---|---|
| 1777723442 | 32.22° C | 27% | - | - | - | 0 W/m² | - |
| 1777722217 | 32.22° C | 15% | - | - | - | 0 W/m² | - |
| 1777720993 | 32.78° C | 16% | - | - | - | 0 W/m² | - |
| 1777719768 | 32.78° C | 13% | - | - | - | 0 W/m² | - |
| 1777718544 | 33.33° C | 4% | - | - | - | 0 W/m² | - |
| 1777717319 | 33.89° C | 1% | - | - | - | 0 W/m² | - |
| 1777716095 | 33.89° C | 1% | - | - | - | 0 W/m² | - |
| 1777714870 | 34.44° C | 1% | - | - | - | 0 W/m² | - |
| 1777713645 | 34.44° C | 1% | - | - | - | 0 W/m² | - |
| 1777712421 | 35.56° C | 1% | - | - | - | 0 W/m² | - |
| 1777711197 | 35.56° C | 1% | - | - | - | 0 W/m² | - |
| 1777709972 | 36.11° C | 1% | - | - | - | 0 W/m² | - |
| 1777708747 | 36.67° C | 1% | - | - | - | 0 W/m² | - |
| 1777707523 | 35° C | 11% | - | - | - | 0 W/m² | - |
| 1777706298 | 36.67° C | 6% | - | - | - | 0 W/m² | - |
| 1777705074 | 35° C | 13% | - | - | - | 0 W/m² | - |
| 1777703849 | 34.44° C | 25% | - | - | - | 0 W/m² | - |
| 1777702624 | 36.67° C | 19% | - | - | - | 0 W/m² | - |
| 1777701400 | 36.67° C | 31% | - | - | - | 0 W/m² | - |
| 1777700175 | 36.67° C | 33% | - | - | - | 0 W/m² | - |
| 1777698951 | 35.56° C | 51% | - | - | - | 0 W/m² | - |
| 1777697726 | 36.11° C | 51% | - | - | - | 0 W/m² | - |
| 1777696501 | 35° C | 59% | - | - | - | 0 W/m² | - |
| 1777695277 | 34.44° C | 62% | - | - | - | 0 W/m² | - |
| 1777694053 | 33.33° C | 69% | - | - | - | 0 W/m² | - |
* Rain since midnight (hover to see other rain measurements)
** Current wind speed in m/s (hover to see current wind gust speed)